Sparta, MI (49345)

6:17 PM EDT on August 04, 2015 (GMT -0400)
Seasons Change Services LLC | | Change Station
CLOSE
Current Station
Personal Weather Station
Location: Sparta, MI
Elevation: 761 ft
Nearby Weather Stations

Elev 761 ft 43.16 °N, 85.70 °W | Updated 25 seconds ago

Mostly Cloudy
Mostly Cloudy
76.8 °F
Feels Like 79 °F
N
3.6
Wind Variable Wind from West
Gusts 4.9 mph

Today
High -- | Low -- °F
--% Chance of Precip.
Yesterday
High -- | Low -- °F
Precip. -- in
6:36 AM 9:00 PM
Waning Gibbous, 74% visible
Pressure 29.95 in
Visibility 10.0 miles
Clouds Scattered Clouds 5000 ft
Mostly Cloudy 25000 ft
Heat Index 79 °F
Dew Point 58 °F
Humidity 52%
Rainfall 0.00 in
Snow Depth Not available.
UV 2 out of 12
Pollen 7.20 out of 12
Air Quality Not available.
Flu Activity Not available.
METAR KGRR 042153Z 28015KT 10SM SCT050 BKN250 24/11 A2996 RMK AO2 SLP141 T02440106

More Conditions Fewer Conditions

Pressure 29.95 in
Visibility 10.0 miles
Clouds Scattered Clouds 5000 ft
Mostly Cloudy 25000 ft
Heat Index 79 °F
Dew Point 58 °F
Humidity 52%
Rainfall 0.00 in
Snow Depth Not available.
UV 2 out of 12
Pollen 7.20 out of 12
Air Quality Not available.
Flu Activity Not available.
METAR KGRR 042153Z 28015KT 10SM SCT050 BKN250 24/11 A2996 RMK AO2 SLP141 T02440106

More Conditions Fewer Conditions

10-Day Weather Forecast

×

Almanac

Astronomy

Aug. 04, 2015 Rise Set
Actual Time
Civil Twilight
Nautical Twilight
Astronomical Twilight
Moon
Length of Visible Light
Length of Day
Tomorrow will be .
, % of the Moon is Illuminated

Today's Extremes

State Highs State Lows

Community

WunderPhotos

Upload Photos

1,844,002 photos uploaded!

WunderBlogs® & News

Nearby

Air Quality

  Air Quality AQ Index Pollutant
Not available.

Snow Depth

Station Depth Elevation

Earthquake Activity

City Distance Mag. Time & Date
Minimum magnitude displayed is 2.5.

Coastal Water Temperatures

Place Temperature

Stations

Nearby Weather Stations

Station Location Temp. Windchill Dew Point Humidity Wind Precip. Elev Updated Type